createdAt,value
2023-07-21T00:00:02.186Z,6.20
2023-07-21T00:02:31.792Z,5.65
2023-07-21T00:04:59.025Z,4.70
2023-07-21T00:07:25.914Z,7.13
2023-07-21T00:09:53.471Z,9.77
2023-07-21T00:12:20.335Z,5.55
2023-07-21T00:14:47.098Z,6.05
2023-07-21T00:17:13.856Z,4.90
2023-07-21T00:19:40.657Z,5.20
2023-07-21T00:22:08.579Z,5.50
2023-07-21T00:24:35.449Z,4.82
2023-07-21T00:27:03.385Z,4.82
2023-07-21T00:29:30.696Z,4.60
2023-07-21T00:31:57.512Z,5.90
2023-07-21T00:34:26.072Z,5.07
2023-07-21T00:36:56.787Z,7.57
2023-07-21T00:39:23.730Z,4.68
2023-07-21T00:41:50.715Z,7.68
2023-07-21T00:44:17.602Z,4.25
2023-07-21T00:46:44.707Z,4.60
2023-07-21T00:49:11.673Z,6.22
2023-07-21T00:51:38.680Z,5.55
2023-07-21T00:54:05.669Z,5.25
2023-07-21T00:56:33.577Z,4.63
2023-07-21T00:59:01.787Z,4.15
2023-07-21T01:01:28.895Z,5.45
2023-07-21T01:03:56.235Z,4.78
2023-07-21T01:08:59.373Z,4.00
2023-07-21T01:11:26.782Z,4.50
2023-07-21T01:13:57.550Z,6.50
2023-07-21T01:16:25.957Z,4.30
2023-07-21T01:18:54.509Z,5.80
2023-07-21T01:21:36.920Z,2.85
2023-07-21T01:24:16.191Z,4.00
2023-07-21T01:26:44.216Z,3.45
2023-07-21T01:29:11.812Z,5.20
2023-07-21T01:31:41.292Z,6.32
2023-07-21T01:34:11.013Z,5.90
2023-07-21T01:36:39.411Z,6.32
2023-07-21T01:39:07.692Z,5.13
2023-07-21T01:41:35.967Z,6.00
2023-07-21T01:44:02.868Z,4.70
2023-07-21T01:46:29.759Z,7.10
2023-07-21T01:48:56.695Z,6.63
2023-07-21T01:51:25.880Z,5.70
2023-07-21T01:53:58.058Z,5.20
2023-07-21T01:56:45.906Z,5.82
2023-07-21T01:59:13.859Z,7.63
2023-07-21T02:01:41.540Z,7.22
2023-07-21T02:04:08.696Z,4.65
2023-07-21T02:06:35.720Z,6.32
2023-07-21T02:09:04.468Z,5.80
2023-07-21T02:11:31.710Z,6.07
2023-07-21T02:14:17.397Z,5.28
2023-07-21T02:16:44.320Z,5.97
2023-07-21T02:19:11.140Z,5.20
2023-07-21T02:21:37.906Z,5.50
2023-07-21T02:24:05.030Z,5.70
2023-07-21T02:26:31.929Z,7.63
2023-07-21T02:28:58.669Z,3.97
2023-07-21T02:31:26.155Z,7.70
2023-07-21T02:33:53.020Z,5.65
2023-07-21T02:36:19.841Z,8.20
2023-07-21T02:38:46.615Z,5.20
2023-07-21T02:41:13.420Z,5.95
2023-07-21T02:43:40.358Z,7.70
2023-07-21T02:46:07.256Z,7.95
2023-07-21T02:48:35.451Z,4.57
2023-07-21T02:51:03.231Z,5.70
2023-07-21T02:53:36.044Z,6.68
2023-07-21T02:56:07.316Z,6.57
2023-07-21T02:58:54.256Z,5.22
2023-07-21T03:01:21.696Z,5.93
2023-07-21T03:03:49.153Z,6.00
2023-07-21T03:06:16.872Z,6.60
2023-07-21T03:08:44.018Z,7.93
2023-07-21T03:11:15.312Z,5.30
2023-07-21T03:14:00.183Z,6.53
2023-07-21T03:16:29.012Z,6.45
2023-07-21T03:18:56.772Z,4.72
2023-07-21T03:21:23.589Z,5.00
2023-07-21T03:23:51.432Z,5.32
2023-07-21T03:26:24.169Z,7.15
2023-07-21T03:28:52.597Z,6.43
2023-07-21T03:31:20.874Z,5.25
2023-07-21T03:33:56.603Z,6.80
2023-07-21T03:36:26.583Z,6.47
2023-07-21T03:38:53.883Z,5.22
2023-07-21T03:41:22.040Z,6.50
2023-07-21T03:43:50.779Z,5.03
2023-07-21T03:49:08.619Z,5.05
2023-07-21T03:51:40.385Z,5.28
2023-07-21T03:54:10.644Z,6.43
2023-07-21T03:56:37.973Z,6.93
2023-07-21T03:59:04.810Z,6.50
2023-07-21T04:01:32.003Z,5.40
2023-07-21T04:03:58.909Z,5.43
2023-07-21T04:06:26.257Z,8.82
2023-07-21T04:08:55.119Z,6.30
2023-07-21T04:11:22.296Z,11.82
2023-07-21T04:13:49.149Z,4.45
2023-07-21T04:16:16.031Z,7.57
2023-07-21T04:18:42.852Z,5.05
2023-07-21T04:21:09.613Z,7.50
2023-07-21T04:23:36.529Z,5.97
2023-07-21T04:26:05.621Z,6.72
2023-07-21T04:28:33.623Z,5.93
2023-07-21T04:33:32.803Z,8.25
2023-07-21T04:36:05.390Z,7.78
2023-07-21T04:38:32.677Z,13.50
2023-07-21T04:41:07.750Z,6.00
2023-07-21T04:43:35.696Z,11.38
2023-07-21T04:46:02.487Z,7.95
2023-07-21T04:48:35.681Z,6.93
2023-07-21T04:51:05.123Z,7.22
2023-07-21T04:53:32.152Z,6.40
2023-07-21T04:55:59.455Z,7.95
2023-07-21T04:58:30.101Z,5.88
2023-07-21T05:00:57.068Z,6.25
2023-07-21T05:03:24.392Z,6.85
2023-07-21T05:05:51.306Z,6.18
2023-07-21T05:08:21.312Z,5.72
2023-07-21T05:10:48.582Z,5.25
2023-07-21T05:13:17.294Z,7.40
2023-07-21T05:15:55.972Z,6.35
2023-07-21T05:18:42.945Z,5.22
2023-07-21T05:21:47.002Z,5.65
2023-07-21T05:24:34.092Z,7.28
2023-07-21T05:27:01.182Z,6.97
2023-07-21T05:29:42.044Z,5.75
2023-07-21T05:32:09.743Z,6.63
2023-07-21T05:34:37.494Z,6.75
2023-07-21T05:37:06.768Z,6.53
2023-07-21T05:39:33.700Z,5.35
2023-07-21T05:42:01.958Z,5.32
2023-07-21T05:44:34.433Z,6.72
2023-07-21T05:47:02.231Z,5.18
2023-07-21T05:49:29.142Z,5.00
2023-07-21T05:51:57.234Z,7.07
2023-07-21T05:54:30.157Z,4.60
2023-07-21T05:56:57.785Z,3.95
2023-07-21T05:59:28.344Z,4.30
2023-07-21T06:02:01.987Z,4.88
2023-07-21T06:04:33.952Z,3.92
2023-07-21T06:07:32.985Z,4.93
2023-07-21T06:10:20.083Z,5.45
2023-07-21T06:12:56.635Z,4.80
2023-07-21T06:15:38.630Z,5.15
2023-07-21T06:18:17.101Z,5.30
2023-07-21T06:20:44.587Z,4.45
2023-07-21T06:23:11.352Z,3.97
2023-07-21T06:25:39.703Z,5.72
2023-07-21T06:28:09.987Z,5.10
2023-07-21T06:30:37.115Z,3.15
2023-07-21T06:33:07.693Z,4.32
2023-07-21T06:35:37.977Z,4.93
2023-07-21T06:38:16.067Z,5.65
2023-07-21T06:41:06.194Z,3.45
2023-07-21T06:43:53.377Z,4.68
2023-07-21T06:46:25.243Z,5.82
2023-07-21T06:49:15.812Z,7.22
2023-07-21T06:51:51.897Z,6.15
2023-07-21T06:54:18.937Z,4.88
2023-07-21T06:56:53.754Z,4.55
2023-07-21T06:59:21.098Z,3.58
2023-07-21T07:01:48.005Z,4.95
2023-07-21T07:04:14.832Z,5.95
2023-07-21T07:06:42.390Z,3.92
2023-07-21T07:09:09.780Z,5.05
2023-07-21T07:11:36.570Z,2.88
2023-07-21T07:14:03.344Z,4.05
2023-07-21T07:16:31.958Z,2.97
2023-07-21T07:18:58.734Z,3.22
2023-07-21T07:21:26.182Z,4.60
2023-07-21T07:23:53.288Z,2.95
2023-07-21T07:26:22.834Z,3.22
2023-07-21T07:28:49.651Z,2.75
2023-07-21T07:31:16.574Z,2.25
2023-07-21T07:33:45.886Z,4.03
2023-07-21T07:36:13.117Z,2.10
2023-07-21T07:38:40.020Z,2.10
2023-07-21T07:41:10.510Z,2.28
2023-07-21T07:43:38.194Z,3.00
2023-07-21T07:46:08.806Z,2.10
2023-07-21T07:48:36.395Z,2.75
2023-07-21T07:51:08.391Z,4.35
2023-07-21T07:53:36.555Z,3.22
2023-07-21T07:56:04.627Z,3.05
2023-07-21T07:58:32.897Z,4.32
2023-07-21T08:03:31.421Z,2.88
2023-07-21T08:06:00.074Z,2.33
2023-07-21T08:08:27.654Z,3.67
2023-07-21T08:10:54.570Z,4.15
2023-07-21T08:13:22.866Z,2.08
2023-07-21T08:15:49.768Z,3.92
2023-07-21T08:18:16.738Z,2.38
2023-07-21T08:20:44.609Z,5.50
2023-07-21T08:23:27.222Z,2.25
2023-07-21T08:25:58.224Z,4.75
2023-07-21T08:28:25.210Z,1.85
2023-07-21T08:30:58.767Z,2.30
2023-07-21T08:33:27.080Z,1.58
2023-07-21T08:35:54.122Z,2.60
2023-07-21T08:38:20.901Z,1.48
2023-07-21T08:40:51.552Z,3.13
2023-07-21T08:43:18.402Z,2.30
2023-07-21T08:45:48.467Z,2.15
2023-07-21T08:48:18.674Z,2.00
2023-07-21T08:50:49.584Z,3.55
2023-07-21T08:53:16.624Z,5.25
2023-07-21T08:55:43.460Z,3.35
2023-07-21T08:58:11.394Z,6.68
2023-07-21T09:00:39.242Z,2.60
2023-07-21T09:03:06.153Z,1.77
2023-07-21T09:05:33.170Z,3.42
2023-07-21T09:08:00.679Z,2.60
2023-07-21T09:10:35.345Z,2.47
2023-07-21T09:13:02.719Z,4.00
2023-07-21T09:15:29.496Z,3.80
2023-07-21T09:17:56.753Z,1.80
2023-07-21T09:20:23.748Z,5.13
2023-07-21T09:22:50.990Z,6.30
2023-07-21T09:25:23.332Z,3.38
2023-07-21T09:27:55.354Z,2.00
2023-07-21T09:30:22.221Z,2.65
2023-07-21T09:32:55.055Z,1.60
2023-07-21T09:35:22.695Z,1.58
2023-07-21T09:37:53.218Z,4.60
2023-07-21T09:40:29.425Z,4.35
2023-07-21T09:42:56.985Z,4.00
2023-07-21T09:45:25.274Z,3.53
2023-07-21T09:47:52.688Z,4.35
2023-07-21T09:50:19.660Z,4.93
2023-07-21T09:52:48.643Z,2.53
2023-07-21T09:55:18.296Z,2.53
2023-07-21T09:57:47.902Z,3.72
2023-07-21T10:00:17.899Z,3.80
2023-07-21T10:02:48.221Z,3.03
2023-07-21T10:05:15.925Z,1.70
2023-07-21T10:07:47.149Z,3.17
2023-07-21T10:10:14.997Z,1.95
2023-07-21T10:12:54.011Z,3.40
2023-07-21T10:15:32.956Z,1.13
2023-07-21T10:18:01.070Z,4.55
2023-07-21T10:20:39.183Z,3.63
2023-07-21T10:23:07.016Z,1.70
2023-07-21T10:25:52.356Z,1.52
2023-07-21T10:28:35.629Z,2.45
2023-07-21T10:31:28.942Z,4.10
2023-07-21T10:34:07.730Z,3.67
2023-07-21T10:36:42.301Z,4.35
2023-07-21T10:39:12.900Z,2.38
2023-07-21T10:41:40.422Z,1.50
2023-07-21T10:44:11.378Z,2.83
2023-07-21T10:46:40.184Z,3.42
2023-07-21T10:49:10.274Z,4.13
2023-07-21T10:51:40.692Z,2.50
2023-07-21T10:54:08.146Z,2.03
2023-07-21T10:56:43.096Z,3.13
2023-07-21T10:59:13.178Z,1.65
2023-07-21T11:01:45.960Z,1.23
2023-07-21T11:04:15.326Z,2.78
2023-07-21T11:06:43.737Z,4.47
2023-07-21T11:09:13.106Z,3.42
2023-07-21T11:11:41.960Z,1.27
2023-07-21T11:14:13.381Z,1.50
2023-07-21T11:17:03.710Z,1.77
2023-07-21T11:19:36.141Z,3.20
2023-07-21T11:22:05.158Z,2.30
2023-07-21T11:24:34.051Z,2.90
2023-07-21T11:27:09.356Z,2.97
2023-07-21T11:29:40.146Z,3.88
2023-07-21T11:32:27.644Z,2.35
2023-07-21T11:35:04.134Z,1.60
2023-07-21T11:37:45.980Z,3.60
2023-07-21T11:40:23.770Z,8.15
2023-07-21T11:42:50.802Z,8.27
2023-07-21T11:45:36.658Z,3.97
2023-07-21T11:48:14.197Z,6.78
2023-07-21T11:50:43.085Z,6.68
2023-07-21T11:53:10.192Z,3.20
2023-07-21T11:55:37.688Z,3.08
2023-07-21T11:58:04.539Z,4.53
2023-07-21T12:00:33.234Z,2.90
2023-07-21T12:03:00.975Z,2.13
2023-07-21T12:05:27.880Z,4.15
2023-07-21T12:07:54.664Z,3.30
2023-07-21T12:10:23.451Z,3.72
2023-07-21T12:12:51.750Z,3.22
2023-07-21T12:17:46.711Z,4.07
2023-07-21T12:20:13.759Z,3.50
2023-07-21T12:25:10.322Z,1.98
2023-07-21T12:27:38.133Z,4.60
2023-07-21T12:30:09.620Z,3.92
2023-07-21T12:32:36.744Z,4.20
2023-07-21T12:35:06.251Z,3.58
2023-07-21T12:37:33.924Z,4.47
2023-07-21T12:40:01.391Z,2.38
2023-07-21T12:42:30.784Z,2.40
2023-07-21T12:44:57.682Z,4.00
2023-07-21T12:47:24.516Z,4.43
2023-07-21T12:49:51.386Z,1.70
2023-07-21T12:52:18.240Z,1.95
2023-07-21T12:54:47.041Z,1.75
2023-07-21T12:57:14.091Z,3.38
2023-07-21T12:59:40.979Z,1.50
2023-07-21T13:02:08.009Z,2.50
2023-07-21T13:04:35.920Z,2.35
2023-07-21T13:07:08.892Z,1.52
2023-07-21T13:09:36.335Z,3.83
2023-07-21T13:12:03.626Z,2.33
2023-07-21T13:14:30.566Z,3.75
2023-07-21T13:16:57.702Z,2.13
2023-07-21T13:19:24.738Z,2.60
2023-07-21T13:21:51.962Z,1.98
2023-07-21T13:24:18.854Z,2.00
2023-07-21T13:26:45.728Z,2.67
2023-07-21T13:29:13.021Z,3.65
2023-07-21T13:31:39.999Z,2.42
2023-07-21T13:34:06.873Z,1.63
2023-07-21T13:36:33.636Z,2.08
2023-07-21T13:39:00.389Z,2.20
2023-07-21T13:41:27.195Z,2.35
2023-07-21T13:43:54.895Z,1.60
2023-07-21T13:46:24.706Z,2.42
2023-07-21T13:48:52.806Z,2.83
2023-07-21T13:51:20.423Z,3.67
2023-07-21T13:53:48.209Z,5.43
2023-07-21T13:56:15.485Z,3.47
2023-07-21T13:58:43.185Z,2.67
2023-07-21T14:01:10.941Z,4.15
2023-07-21T14:03:38.088Z,5.60
2023-07-21T14:06:06.746Z,3.83
2023-07-21T14:08:33.955Z,7.07
2023-07-21T14:11:01.315Z,7.55
2023-07-21T14:13:28.153Z,6.05
2023-07-21T14:15:55.001Z,7.30
2023-07-21T14:18:24.110Z,8.57
2023-07-21T14:20:51.091Z,7.40
2023-07-21T14:23:18.075Z,8.05
2023-07-21T14:25:45.067Z,6.78
2023-07-21T14:28:11.917Z,11.10
2023-07-21T14:30:38.800Z,10.32
2023-07-21T14:33:06.055Z,12.65
2023-07-21T14:35:32.968Z,8.30
2023-07-21T14:38:00.050Z,8.68
2023-07-21T14:40:27.006Z,10.70
2023-07-21T14:42:53.931Z,6.63
2023-07-21T14:45:20.771Z,9.90
2023-07-21T14:47:47.748Z,10.38
2023-07-21T14:50:14.596Z,8.90
2023-07-21T14:52:41.364Z,10.25
2023-07-21T14:55:10.655Z,11.15
2023-07-21T14:57:37.412Z,10.88
2023-07-21T15:00:10.434Z,9.82
2023-07-21T15:02:37.514Z,10.52
2023-07-21T15:05:04.486Z,12.02
2023-07-21T15:07:32.173Z,10.07
2023-07-21T15:09:59.396Z,9.88
2023-07-21T15:12:27.344Z,10.70
2023-07-21T15:14:54.138Z,10.60
2023-07-21T15:17:20.938Z,12.23
2023-07-21T15:19:47.721Z,11.68
2023-07-21T15:22:16.115Z,10.32
2023-07-21T15:24:44.777Z,8.98
2023-07-21T15:27:12.092Z,9.63
2023-07-21T15:29:38.860Z,10.88
2023-07-21T15:32:06.320Z,9.00
2023-07-21T15:34:33.304Z,10.77
2023-07-21T15:37:00.289Z,9.05
2023-07-21T15:39:27.075Z,9.00
2023-07-21T15:41:54.601Z,12.30
2023-07-21T15:44:21.394Z,12.23
2023-07-21T15:46:48.219Z,9.20
2023-07-21T15:49:15.112Z,10.00
2023-07-21T15:51:41.892Z,9.43
2023-07-21T15:54:17.337Z,10.98
2023-07-21T15:56:44.815Z,10.18
2023-07-21T15:59:11.644Z,9.13
2023-07-21T16:01:38.617Z,10.93
2023-07-21T16:04:06.123Z,9.23
2023-07-21T16:06:33.074Z,11.00
2023-07-21T16:08:59.843Z,13.15
2023-07-21T16:11:27.006Z,10.73
2023-07-21T16:13:54.051Z,8.85
2023-07-21T16:16:21.397Z,9.57
2023-07-21T16:18:50.174Z,9.80
2023-07-21T16:21:18.409Z,9.45
2023-07-21T16:26:16.106Z,11.20
2023-07-21T16:28:43.036Z,12.60
2023-07-21T16:31:09.807Z,10.10
2023-07-21T16:33:36.903Z,11.75
2023-07-21T16:36:05.171Z,16.08
2023-07-21T16:41:03.382Z,12.25
2023-07-21T16:43:30.439Z,10.85
2023-07-21T16:45:57.389Z,11.85
2023-07-21T16:48:24.346Z,11.65
2023-07-21T16:50:52.506Z,12.65
2023-07-21T16:53:20.714Z,11.02
2023-07-21T16:55:48.870Z,10.65
2023-07-21T16:58:19.072Z,12.02
2023-07-21T17:00:46.913Z,7.32
2023-07-21T17:03:14.955Z,9.90
2023-07-21T17:05:43.468Z,7.90
2023-07-21T17:10:37.361Z,8.02
2023-07-21T17:13:05.236Z,9.15
2023-07-21T17:15:32.610Z,7.45
2023-07-21T17:18:00.761Z,8.52
2023-07-21T17:20:28.005Z,7.13
2023-07-21T17:22:54.844Z,5.97
2023-07-21T17:25:21.704Z,7.68
2023-07-21T17:27:49.356Z,7.55
2023-07-21T17:30:16.317Z,10.60
2023-07-21T17:32:43.223Z,7.85
2023-07-21T17:35:10.596Z,7.90
2023-07-21T17:37:39.637Z,8.40
2023-07-21T17:40:11.639Z,7.85
2023-07-21T17:42:39.957Z,7.47
2023-07-21T17:47:34.228Z,7.65
2023-07-21T17:50:00.989Z,8.88
2023-07-21T17:52:27.860Z,10.45
2023-07-21T17:54:55.431Z,9.20
2023-07-21T17:57:22.723Z,9.07
2023-07-21T17:59:49.575Z,7.35
2023-07-21T18:02:16.349Z,6.63
2023-07-21T18:04:43.098Z,6.07
2023-07-21T18:07:09.986Z,6.57
2023-07-21T18:09:39.111Z,6.90
2023-07-21T18:12:07.324Z,6.75
2023-07-21T18:14:34.581Z,6.93
2023-07-21T18:17:01.384Z,7.70
2023-07-21T18:19:28.128Z,6.80
2023-07-21T18:21:55.534Z,7.90
2023-07-21T18:24:22.377Z,6.68
2023-07-21T18:26:49.161Z,8.00
2023-07-21T18:29:15.987Z,11.02
2023-07-21T18:31:42.778Z,6.82
2023-07-21T18:34:10.109Z,6.97
2023-07-21T18:36:36.906Z,7.85
2023-07-21T18:39:06.017Z,6.90
2023-07-21T18:41:32.847Z,7.85
2023-07-21T18:43:59.695Z,7.13
2023-07-21T18:46:26.555Z,6.50
2023-07-21T18:48:53.991Z,10.45
2023-07-21T18:51:21.996Z,5.95
2023-07-21T18:53:48.901Z,8.77
2023-07-21T18:56:15.747Z,9.63
2023-07-21T18:58:42.590Z,9.25
2023-07-21T19:01:09.425Z,7.35
2023-07-21T19:03:36.297Z,7.22
2023-07-21T19:06:07.345Z,7.22
2023-07-21T19:08:34.113Z,8.18
2023-07-21T19:11:00.917Z,7.25
2023-07-21T19:13:27.697Z,8.30
2023-07-21T19:15:54.482Z,7.25
2023-07-21T19:18:21.235Z,10.23
2023-07-21T19:20:47.999Z,8.63
2023-07-21T19:23:14.797Z,11.05
2023-07-21T19:25:50.363Z,9.25
2023-07-21T19:28:17.182Z,6.53
2023-07-21T19:30:43.961Z,8.48
2023-07-21T19:33:10.880Z,10.23
2023-07-21T19:35:37.727Z,11.93
2023-07-21T19:38:04.545Z,10.68
2023-07-21T19:40:31.287Z,8.75
2023-07-21T19:42:58.066Z,7.35
2023-07-21T19:45:24.877Z,17.02
2023-07-21T19:47:51.727Z,7.78
2023-07-21T19:50:18.612Z,6.03
2023-07-21T19:52:47.115Z,8.38
2023-07-21T19:55:14.905Z,7.28
2023-07-21T19:57:41.662Z,9.02
2023-07-21T20:00:11.862Z,10.93
2023-07-21T20:02:38.732Z,8.88
2023-07-21T20:05:06.336Z,9.15
2023-07-21T20:07:33.118Z,11.30
2023-07-21T20:09:59.882Z,9.82
2023-07-21T20:12:26.700Z,7.78
2023-07-21T20:14:54.861Z,9.73
2023-07-21T20:17:21.780Z,12.15
2023-07-21T20:19:50.300Z,9.05
2023-07-21T20:22:18.273Z,9.30
2023-07-21T20:24:45.329Z,10.23
2023-07-21T20:27:12.384Z,8.02
2023-07-21T20:29:39.230Z,13.82
2023-07-21T20:32:06.272Z,9.35
2023-07-21T20:34:33.077Z,7.78
2023-07-21T20:36:59.866Z,7.93
2023-07-21T20:39:27.041Z,7.50
2023-07-21T20:41:53.892Z,7.88
2023-07-21T20:44:21.089Z,9.10
2023-07-21T20:46:47.953Z,8.98
2023-07-21T20:49:14.782Z,10.48
2023-07-21T20:51:41.666Z,8.68
2023-07-21T20:54:08.741Z,10.20
2023-07-21T20:56:35.569Z,8.98
2023-07-21T20:59:02.363Z,8.93
2023-07-21T21:01:29.240Z,9.63
2023-07-21T21:03:56.119Z,8.23
2023-07-21T21:06:23.145Z,8.88
2023-07-21T21:08:50.180Z,7.80
2023-07-21T21:11:16.914Z,9.00
2023-07-21T21:13:43.697Z,7.22
2023-07-21T21:16:10.580Z,8.13
2023-07-21T21:18:37.403Z,9.07
2023-07-21T21:21:04.163Z,8.43
2023-07-21T21:23:31.000Z,8.35
2023-07-21T21:25:58.156Z,6.95
2023-07-21T21:28:25.321Z,9.57
2023-07-21T21:31:02.409Z,10.02
2023-07-21T21:33:29.848Z,8.07
2023-07-21T21:35:57.582Z,8.43
2023-07-21T21:38:25.136Z,9.10
2023-07-21T21:40:55.076Z,7.03
2023-07-21T21:43:22.290Z,8.32
2023-07-21T21:45:49.274Z,8.48
2023-07-21T21:48:16.191Z,6.85
2023-07-21T21:50:43.069Z,7.18
2023-07-21T21:53:09.832Z,7.38
2023-07-21T21:55:36.601Z,7.47
2023-07-21T21:58:03.392Z,8.13
2023-07-21T22:00:30.156Z,7.65
2023-07-21T22:02:57.054Z,7.03
2023-07-21T22:05:24.017Z,8.00
2023-07-21T22:07:50.816Z,6.13
2023-07-21T22:10:17.685Z,8.05
2023-07-21T22:12:44.456Z,7.82
2023-07-21T22:15:11.590Z,8.57
2023-07-21T22:17:38.429Z,5.97
2023-07-21T22:20:11.457Z,8.27
2023-07-21T22:22:39.109Z,8.10
2023-07-21T22:25:06.713Z,7.45
2023-07-21T22:27:33.949Z,8.95
2023-07-21T22:30:00.858Z,8.00
2023-07-21T22:32:27.778Z,9.55
2023-07-21T22:34:54.662Z,10.27
2023-07-21T22:37:21.443Z,9.88
2023-07-21T22:39:48.191Z,9.30
2023-07-21T22:42:14.976Z,9.38
2023-07-21T22:44:41.823Z,8.45
2023-07-21T22:47:09.376Z,7.88
2023-07-21T22:49:37.687Z,9.05
2023-07-21T22:52:04.902Z,9.82
2023-07-21T22:54:31.736Z,9.52
2023-07-21T22:56:58.548Z,8.35
2023-07-21T22:59:25.488Z,9.68
2023-07-21T23:01:52.773Z,10.73
2023-07-21T23:04:19.700Z,9.57
2023-07-21T23:06:47.637Z,10.05
2023-07-21T23:09:14.419Z,9.90
2023-07-21T23:11:41.228Z,10.23
2023-07-21T23:14:08.059Z,9.02
2023-07-21T23:16:34.864Z,10.60
2023-07-21T23:19:01.675Z,10.98
2023-07-21T23:21:28.470Z,10.68
2023-07-21T23:23:55.231Z,11.27
2023-07-21T23:26:22.029Z,10.02
2023-07-21T23:28:48.825Z,11.82
2023-07-21T23:31:15.805Z,11.27
2023-07-21T23:33:42.557Z,10.10
2023-07-21T23:36:09.461Z,11.75
2023-07-21T23:38:36.524Z,11.02
2023-07-21T23:41:03.363Z,12.90
2023-07-21T23:43:30.383Z,11.27
2023-07-21T23:45:59.494Z,11.13
2023-07-21T23:48:27.548Z,11.50
2023-07-21T23:50:54.304Z,14.88
2023-07-21T23:53:21.072Z,9.70
2023-07-21T23:55:47.905Z,11.48
2023-07-21T23:58:14.690Z,13.65
